Ana Sayfa
METAR-TAF:

METAR-TAF

Havaalanları :

Safford, Arizona, Amerika Birleşik Devletleri

Enlem: 32-51-26N, Boylam: 109-38-08W, yükseklik: 968 m

Güncel hava durumu gözlemi

Rapor saat 07:51 UTC de 56 dakika önce yapıldı.
Rüzgar güneydoğudan 5 kt
Sıcaklık 6°C
Nem 87%
Basınç 1016 hPa
Görüş mesafesi: 16.1 km
Açık gökyüzü

METAR: KSAD 140751Z AUTO 14005KT 10SM CLR 06/04 A3000 RMK AO2 SLP141 T00560039

Saat: 01:47 (08:47 UTC)


TAF: eksik

4.000'den fazla havaalanı için hava durumu gözlemleri ve tahminleri (METAR ve TAF raporları).

Kullanılabilir istasyonlar harita üzerinde sarı ve kırmızı noktalarla gösterilir.

İstasyonun adını görmek için fareyi noktanın üzerinde gezdirin.

Sonrasında hava gözlem ve tahminlerini görmek için tıklayın.

Haritayı değiştirmek için: yaklaştırmak için siyah artı işaretli yeşil düğmeye ve uzaklaştırmak için de eksi işaretli düğmeye hızla tıklayın; bitişik haritalar için yeşil okları kullanın.


METAR-TAF: